Time;durP1;ratioP1;P1;durP2;ratioP2;P2;SDS_P1;SDS_P2;PMS_P1;PMS_P2;Temp;Humidity;BMP_temperature;BMP_pressure;BME280_temperature;BME280_humidity;BME280_pressure;Samples;Min_cycle;Max_cycle;Signal;HPM_P1;HPM_P2
2023/08/30 00:00:00;;;;;;;4.07;3.25;;;;;;;;;;5014382;28;20062;-92
2023/08/30 00:02:32;;;;;;;4.75;3.25;;;;;;;;;;5016913;28;20038;-94
2023/08/30 00:05:02;;;;;;;9.38;4.07;;;;;;;;;;5032094;28;20050;-93
2023/08/30 00:07:30;;;;;;;4.28;3.63;;;;;;;;;;5022177;28;20038;-94
2023/08/30 00:10:00;;;;;;;6.50;3.53;;;;;;;;;;5028836;28;20416;-93
2023/08/30 00:12:30;;;;;;;7.05;3.28;;;;;;;;;;5013822;28;20046;-95
2023/08/30 00:14:57;;;;;;;3.95;3.65;;;;;;;;;;5020863;28;20050;-95
2023/08/30 00:17:28;;;;;;;4.38;3.78;;;;;;;;;;5014018;28;20056;-92
2023/08/30 00:19:55;;;;;;;7.15;4.18;;;;;;;;;;5014945;28;20395;-92
2023/08/30 00:22:23;;;;;;;4.97;3.75;;;;;;;;;;5014943;28;20038;-94
2023/08/30 00:24:50;;;;;;;3.80;3.42;;;;;;;;;;5015483;28;20060;-93
2023/08/30 00:27:20;;;;;;;3.80;3.40;;;;;;;;;;5014834;28;20060;-92
2023/08/30 00:29:47;;;;;;;4.32;2.90;;;;;;;;;;5016806;28;20040;-92
2023/08/30 00:32:15;;;;;;;3.13;2.83;;;;;;;;;;5015683;28;20056;-92
2023/08/30 00:34:43;;;;;;;4.07;3.70;;;;;;;;;;5030693;28;20040;-93
2023/08/30 00:37:11;;;;;;;3.28;2.97;;;;;;;;;;5014492;28;20051;-93
2023/08/30 00:39:38;;;;;;;4.07;3.45;;;;;;;;;;5014543;28;20058;-93
2023/08/30 00:42:07;;;;;;;4.47;4.07;;;;;;;;;;5015280;28;20034;-92
2023/08/30 00:44:35;;;;;;;3.15;2.55;;;;;;;;;;5029922;28;20038;-93
2023/08/30 00:47:03;;;;;;;4.28;3.28;;;;;;;;;;5044124;28;20029;-92
2023/08/30 00:49:33;;;;;;;5.80;4.10;;;;;;;;;;5032031;28;20046;-92
2023/08/30 00:52:11;;;;;;;4.40;3.17;;;;;;;;;;5014678;28;20376;-94
2023/08/30 00:54:39;;;;;;;3.53;3.20;;;;;;;;;;5014917;28;20040;-92
2023/08/30 00:57:08;;;;;;;4.25;3.10;;;;;;;;;;5015532;28;20050;-93
2023/08/30 00:59:36;;;;;;;4.95;3.63;;;;;;;;;;5017507;28;20076;-92
2023/08/30 01:02:04;;;;;;;4.30;3.10;;;;;;;;;;5021680;28;20011;-93
2023/08/30 01:04:34;;;;;;;4.43;3.22;;;;;;;;;;5014522;28;20222;-94
2023/08/30 01:07:03;;;;;;;4.22;3.60;;;;;;;;;;5015228;28;20038;-92
2023/08/30 01:09:35;;;;;;;5.13;3.50;;;;;;;;;;5014415;28;20038;-94
2023/08/30 01:12:07;;;;;;;7.90;3.60;;;;;;;;;;5031499;28;20060;-94
2023/08/30 01:14:39;;;;;;;7.18;3.20;;;;;;;;;;5031896;28;20046;-92
2023/08/30 01:17:08;;;;;;;4.15;3.28;;;;;;;;;;5015835;28;20052;-92
2023/08/30 01:19:49;;;;;;;4.30;3.17;;;;;;;;;;5016250;28;20026;-92
2023/08/30 01:22:20;;;;;;;6.35;3.60;;;;;;;;;;5016822;28;20038;-91
2023/08/30 01:24:59;;;;;;;2.90;2.70;;;;;;;;;;5025732;28;20040;-91
2023/08/30 01:27:31;;;;;;;4.72;4.05;;;;;;;;;;5016693;28;20030;-91
2023/08/30 01:29:59;;;;;;;4.53;3.67;;;;;;;;;;5016969;28;20033;-91
2023/08/30 01:32:30;;;;;;;3.50;3.20;;;;;;;;;;5024379;28;20037;-94
2023/08/30 01:34:57;;;;;;;6.15;4.05;;;;;;;;;;5016120;28;20046;-94
2023/08/30 01:37:27;;;;;;;4.03;3.63;;;;;;;;;;5016028;28;20028;-93
2023/08/30 01:39:56;;;;;;;3.70;3.30;;;;;;;;;;5015158;28;20046;-94
2023/08/30 01:42:26;;;;;;;4.97;3.25;;;;;;;;;;5014643;28;20101;-95
2023/08/30 01:44:58;;;;;;;3.70;3.38;;;;;;;;;;5014649;28;20038;-93
2023/08/30 01:47:27;;;;;;;2.85;2.65;;;;;;;;;;5013726;28;20042;-93
2023/08/30 01:50:00;;;;;;;5.28;3.33;;;;;;;;;;5030557;28;20046;-93
2023/08/30 01:52:28;;;;;;;3.15;2.85;;;;;;;;;;5015006;28;20041;-93
2023/08/30 01:54:55;;;;;;;9.45;4.07;;;;;;;;;;5033519;28;20044;-93
2023/08/30 01:57:23;;;;;;;3.53;3.22;;;;;;;;;;5021411;28;20049;-93
2023/08/30 01:59:52;;;;;;;6.15;3.67;;;;;;;;;;5017459;28;20058;-92
2023/08/30 02:02:21;;;;;;;3.90;3.60;;;;;;;;;;5018062;28;20121;-92
2023/08/30 02:04:48;;;;;;;4.47;3.33;;;;;;;;;;5017869;28;20060;-94
2023/08/30 02:07:19;;;;;;;3.22;2.92;;;;;;;;;;5018194;28;20038;-92
2023/08/30 02:09:52;;;;;;;3.65;3.17;;;;;;;;;;5034008;28;20058;-94
2023/08/30 02:12:21;;;;;;;5.20;4.03;;;;;;;;;;5017972;28;20363;-95
2023/08/30 02:14:51;;;;;;;4.75;3.15;;;;;;;;;;5017648;28;20479;-93
2023/08/30 02:17:23;;;;;;;3.70;3.05;;;;;;;;;;5017562;28;20046;-92
2023/08/30 02:19:53;;;;;;;4.03;3.35;;;;;;;;;;5000357;28;20038;-93
2023/08/30 02:22:22;;;;;;;3.40;2.90;;;;;;;;;;5017853;28;20050;-93
2023/08/30 02:24:49;;;;;;;4.20;3.58;;;;;;;;;;5041870;28;20042;-93
2023/08/30 02:27:19;;;;;;;7.28;3.40;;;;;;;;;;5001339;28;20030;-94
2023/08/30 02:29:47;;;;;;;6.80;3.70;;;;;;;;;;5019401;28;20066;-95
2023/08/30 02:32:15;;;;;;;4.60;3.53;;;;;;;;;;5023637;28;20042;-93
2023/08/30 02:34:46;;;;;;;7.97;4.28;;;;;;;;;;5034052;28;20052;-94
2023/08/30 02:37:15;;;;;;;3.95;3.58;;;;;;;;;;5018354;28;20052;-93
2023/08/30 02:39:43;;;;;;;4.63;2.58;;;;;;;;;;5018699;28;20037;-93
2023/08/30 02:42:10;;;;;;;10.90;3.95;;;;;;;;;;5017249;28;20150;-94
2023/08/30 02:44:42;;;;;;;9.55;3.88;;;;;;;;;;5032226;28;20050;-94
2023/08/30 02:47:20;;;;;;;3.67;2.70;;;;;;;;;;5017722;28;20047;-92
2023/08/30 02:49:51;;;;;;;6.03;3.15;;;;;;;;;;5032977;28;20057;-93
2023/08/30 02:52:20;;;;;;;11.70;3.63;;;;;;;;;;5018418;28;20600;-93
2023/08/30 02:54:48;;;;;;;7.50;4.15;;;;;;;;;;5016972;28;20068;-93
2023/08/30 02:57:15;;;;;;;3.65;3.25;;;;;;;;;;5017403;28;20046;-94
2023/08/30 02:59:45;;;;;;;5.93;4.25;;;;;;;;;;5042247;28;20056;-93
2023/08/30 03:02:15;;;;;;;5.90;3.55;;;;;;;;;;5018100;28;20394;-93
2023/08/30 03:04:42;;;;;;;4.72;3.05;;;;;;;;;;5034329;28;20050;-92
2023/08/30 03:07:12;;;;;;;5.00;4.60;;;;;;;;;;5018283;28;20026;-94
2023/08/30 03:09:40;;;;;;;4.05;3.65;;;;;;;;;;5016836;28;20040;-94
2023/08/30 03:12:11;;;;;;;10.27;3.28;;;;;;;;;;5017550;28;20045;-92
2023/08/30 03:14:38;;;;;;;4.78;3.17;;;;;;;;;;5000983;28;20054;-92
2023/08/30 03:17:06;;;;;;;3.15;2.85;;;;;;;;;;5033245;28;20030;-93
2023/08/30 03:19:33;;;;;;;6.32;3.60;;;;;;;;;;5016655;28;20046;-93
2023/08/30 03:22:01;;;;;;;4.53;3.05;;;;;;;;;;5017339;28;20061;-93
2023/08/30 03:24:32;;;;;;;6.53;4.22;;;;;;;;;;5001190;28;20049;-92
2023/08/30 03:27:00;;;;;;;4.15;3.75;;;;;;;;;;5016739;28;20034;-93
2023/08/30 03:29:30;;;;;;;6.30;3.42;;;;;;;;;;5016800;28;20043;-92
2023/08/30 03:32:00;;;;;;;5.85;3.85;;;;;;;;;;5008738;28;20062;-93
2023/08/30 03:34:27;;;;;;;3.92;3.63;;;;;;;;;;5017325;28;20046;-92
2023/08/30 03:36:55;;;;;;;3.97;3.58;;;;;;;;;;5016813;28;20034;-93
2023/08/30 03:39:25;;;;;;;3.63;3.33;;;;;;;;;;5017934;28;20049;-93
2023/08/30 03:41:53;;;;;;;4.15;3.00;;;;;;;;;;5026317;28;20046;-93
2023/08/30 03:44:24;;;;;;;4.50;3.15;;;;;;;;;;5034652;28;20037;-91
2023/08/30 03:46:56;;;;;;;3.35;3.05;;;;;;;;;;5018188;28;20022;-93
2023/08/30 03:49:25;;;;;;;4.88;3.97;;;;;;;;;;5040807;28;20050;-92
2023/08/30 03:51:53;;;;;;;4.82;4.32;;;;;;;;;;5019012;28;20030;-92
2023/08/30 03:54:20;;;;;;;7.38;4.18;;;;;;;;;;5016792;28;20065;-93
2023/08/30 03:56:47;;;;;;;3.67;3.17;;;;;;;;;;5016862;28;20061;-93
2023/08/30 03:59:16;;;;;;;9.02;4.15;;;;;;;;;;5017705;28;20030;-92
2023/08/30 04:01:45;;;;;;;8.05;4.05;;;;;;;;;;5016478;28;20046;-92
2023/08/30 04:04:15;;;;;;;7.18;3.85;;;;;;;;;;5033188;28;20484;-94
2023/08/30 04:06:42;;;;;;;6.18;5.55;;;;;;;;;;5017095;28;20034;-92
2023/08/30 04:09:12;;;;;;;5.25;4.75;;;;;;;;;;5017218;28;20033;-93
2023/08/30 04:11:40;;;;;;;6.55;4.93;;;;;;;;;;5016803;28;20041;-93
2023/08/30 04:14:13;;;;;;;6.30;4.65;;;;;;;;;;5013137;28;20052;-92
2023/08/30 04:16:42;;;;;;;6.05;4.00;;;;;;;;;;5053753;28;20392;-93
2023/08/30 04:19:14;;;;;;;5.13;4.63;;;;;;;;;;5031420;28;20048;-91
2023/08/30 04:21:45;;;;;;;5.32;3.72;;;;;;;;;;5032730;28;20574;-94
2023/08/30 04:24:14;;;;;;;4.90;3.78;;;;;;;;;;5000318;28;20047;-93
2023/08/30 04:26:43;;;;;;;4.82;4.25;;;;;;;;;;5041236;28;20046;-92
2023/08/30 04:29:12;;;;;;;4.93;4.00;;;;;;;;;;5016307;28;20036;-93
2023/08/30 04:31:44;;;;;;;4.00;3.65;;;;;;;;;;5019536;28;20052;-92
2023/08/30 04:34:11;;;;;;;5.85;4.50;;;;;;;;;;5024081;28;20060;-92
2023/08/30 04:36:39;;;;;;;3.83;3.53;;;;;;;;;;5032129;28;20042;-93
2023/08/30 04:39:06;;;;;;;5.82;4.38;;;;;;;;;;5015602;28;20037;-92
2023/08/30 04:41:37;;;;;;;3.80;3.50;;;;;;;;;;5015910;28;20030;-92
2023/08/30 04:44:05;;;;;;;4.65;4.25;;;;;;;;;;5016058;28;20038;-93
2023/08/30 04:46:33;;;;;;;4.47;4.07;;;;;;;;;;5016228;28;20057;-94
2023/08/30 04:49:02;;;;;;;4.93;3.95;;;;;;;;;;5019014;28;20046;-94
2023/08/30 04:51:32;;;;;;;5.55;5.05;;;;;;;;;;5036787;28;20040;-92
2023/08/30 04:53:59;;;;;;;5.78;4.95;;;;;;;;;;5027161;28;20057;-92
2023/08/30 04:56:27;;;;;;;5.85;5.10;;;;;;;;;;5022260;28;20038;-93
2023/08/30 04:58:57;;;;;;;5.43;3.65;;;;;;;;;;5016081;28;20034;-91
2023/08/30 05:01:25;;;;;;;4.85;4.30;;;;;;;;;;5033087;28;20048;-93
2023/08/30 05:03:58;;;;;;;5.97;4.60;;;;;;;;;;5009169;28;20054;-93
2023/08/30 05:06:27;;;;;;;5.57;4.32;;;;;;;;;;5015604;28;20060;-93
2023/08/30 05:08:59;;;;;;;5.28;4.57;;;;;;;;;;5015188;28;20038;-93
2023/08/30 05:11:27;;;;;;;5.20;4.72;;;;;;;;;;5021523;28;20048;-92
2023/08/30 05:13:55;;;;;;;5.13;4.35;;;;;;;;;;5033201;28;20037;-94
2023/08/30 05:16:24;;;;;;;8.00;5.03;;;;;;;;;;5032663;28;20022;-93
2023/08/30 05:18:54;;;;;;;4.78;4.38;;;;;;;;;;5015851;28;20038;-92
2023/08/30 05:21:22;;;;;;;5.47;4.60;;;;;;;;;;5032165;28;20062;-92
2023/08/30 05:23:51;;;;;;;5.25;4.75;;;;;;;;;;4995071;28;20042;-94
2023/08/30 05:26:19;;;;;;;5.35;4.85;;;;;;;;;;5027712;28;20054;-93
2023/08/30 05:28:49;;;;;;;7.05;5.38;;;;;;;;;;5018990;28;20057;-94
2023/08/30 05:31:16;;;;;;;5.22;4.72;;;;;;;;;;5018001;28;20069;-92
2023/08/30 05:34:06;;;;;;;5.10;4.60;;;;;;;;;;5011262;28;20058;-94
2023/08/30 05:37:12;;;;;;;5.93;4.50;;;;;;;;;;5021002;28;20030;-92
2023/08/30 05:39:59;;;;;;;3.65;3.17;;;;;;;;;;5011424;28;20048;-94
2023/08/30 05:42:26;;;;;;;4.28;3.83;;;;;;;;;;4983345;28;20060;-94
2023/08/30 05:44:54;;;;;;;6.25;4.40;;;;;;;;;;5009385;28;20038;-93
2023/08/30 05:47:22;;;;;;;5.93;5.10;;;;;;;;;;5009287;28;20056;-93
2023/08/30 05:49:49;;;;;;;6.30;4.18;;;;;;;;;;5024411;28;20569;-94
2023/08/30 05:52:18;;;;;;;5.18;4.50;;;;;;;;;;5009784;28;20058;-93
2023/08/30 05:54:45;;;;;;;7.60;5.30;;;;;;;;;;5025154;28;20046;-93
2023/08/30 05:57:14;;;;;;;5.15;4.65;;;;;;;;;;5009825;28;20057;-94
2023/08/30 05:59:44;;;;;;;6.20;4.82;;;;;;;;;;5008766;28;20052;-94
2023/08/30 06:02:13;;;;;;;6.15;4.13;;;;;;;;;;5010084;28;20057;-93
2023/08/30 06:04:41;;;;;;;5.38;4.90;;;;;;;;;;5009309;28;20059;-94
2023/08/30 06:07:08;;;;;;;5.43;4.68;;;;;;;;;;5008537;28;20043;-95
2023/08/30 06:09:36;;;;;;;4.97;4.45;;;;;;;;;;5015766;28;20050;-93
2023/08/30 06:12:04;;;;;;;4.47;4.03;;;;;;;;;;5008215;28;20050;-94
2023/08/30 06:14:32;;;;;;;5.07;4.63;;;;;;;;;;5007714;28;20046;-94
2023/08/30 06:17:02;;;;;;;5.32;4.80;;;;;;;;;;5008209;28;20056;-94
2023/08/30 06:19:29;;;;;;;11.95;5.40;;;;;;;;;;5024253;28;20050;-95
2023/08/30 06:21:57;;;;;;;6.70;4.82;;;;;;;;;;5017040;28;20051;-95
2023/08/30 06:24:24;;;;;;;5.05;4.32;;;;;;;;;;5007304;28;20054;-92
2023/08/30 06:26:54;;;;;;;5.82;5.35;;;;;;;;;;5008900;28;20054;-94
2023/08/30 06:29:21;;;;;;;7.28;6.60;;;;;;;;;;5008224;28;20042;-94
2023/08/30 06:31:51;;;;;;;6.03;5.47;;;;;;;;;;5008994;28;20056;-94
2023/08/30 06:34:18;;;;;;;6.10;5.03;;;;;;;;;;5010429;28;20046;-94
2023/08/30 06:36:46;;;;;;;5.88;5.00;;;;;;;;;;4995971;28;20053;-92
2023/08/30 06:39:16;;;;;;;16.27;7.50;;;;;;;;;;5021572;28;20042;-93
2023/08/30 06:41:43;;;;;;;9.00;7.07;;;;;;;;;;5013521;28;20052;-94
2023/08/30 06:44:17;;;;;;;6.15;5.55;;;;;;;;;;5000430;28;20052;-92
2023/08/30 06:46:45;;;;;;;6.30;5.75;;;;;;;;;;5034187;28;20416;-93
2023/08/30 06:49:18;;;;;;;6.70;6.07;;;;;;;;;;5017249;28;20175;-93
2023/08/30 06:51:49;;;;;;;9.60;6.00;;;;;;;;;;5017193;28;20036;-92
2023/08/30 06:54:18;;;;;;;6.72;6.03;;;;;;;;;;5017043;28;20026;-93
2023/08/30 06:56:58;;;;;;;7.68;6.45;;;;;;;;;;5018080;28;20046;-92
2023/08/30 06:59:26;;;;;;;8.02;5.88;;;;;;;;;;5010652;28;20046;-93
2023/08/30 07:01:53;;;;;;;5.97;5.47;;;;;;;;;;5018832;28;20026;-93
2023/08/30 07:04:22;;;;;;;7.15;6.55;;;;;;;;;;5009463;28;20069;-93
2023/08/30 07:06:49;;;;;;;8.57;7.05;;;;;;;;;;5018638;28;20057;-92
2023/08/30 07:09:17;;;;;;;11.75;7.10;;;;;;;;;;5017457;28;20037;-92
2023/08/30 07:11:45;;;;;;;6.80;6.20;;;;;;;;;;5019021;28;20054;-92
2023/08/30 07:14:13;;;;;;;6.50;5.97;;;;;;;;;;5021287;28;20049;-92
2023/08/30 07:16:41;;;;;;;6.80;6.10;;;;;;;;;;5024416;28;20046;-92
2023/08/30 07:19:09;;;;;;;7.13;6.35;;;;;;;;;;5018086;28;20030;-92
2023/08/30 07:21:40;;;;;;;7.03;6.40;;;;;;;;;;5034234;28;20050;-92
2023/08/30 07:24:10;;;;;;;7.93;6.22;;;;;;;;;;5018400;28;20042;-92
2023/08/30 07:26:38;;;;;;;7.53;6.78;;;;;;;;;;5026818;28;20039;-92
2023/08/30 07:29:05;;;;;;;5.75;5.25;;;;;;;;;;5018857;28;20038;-92
2023/08/30 07:31:35;;;;;;;6.88;6.28;;;;;;;;;;5018418;28;20040;-93
2023/08/30 07:34:03;;;;;;;8.15;6.97;;;;;;;;;;5018655;28;20046;-91
2023/08/30 07:36:32;;;;;;;8.32;6.85;;;;;;;;;;5018615;28;20057;-93
2023/08/30 07:39:01;;;;;;;7.72;6.53;;;;;;;;;;5018639;28;20030;-94
2023/08/30 07:41:28;;;;;;;7.38;6.72;;;;;;;;;;5017461;28;20030;-92
2023/08/30 07:43:56;;;;;;;7.85;6.38;;;;;;;;;;5026982;28;20032;-92
2023/08/30 07:46:24;;;;;;;7.15;6.53;;;;;;;;;;5018985;28;20050;-94
2023/08/30 07:48:51;;;;;;;7.95;7.10;;;;;;;;;;5017853;28;20030;-91
2023/08/30 07:51:18;;;;;;;7.10;6.40;;;;;;;;;;5018116;28;20042;-93
2023/08/30 07:53:46;;;;;;;6.65;6.07;;;;;;;;;;5017322;28;20045;-93
2023/08/30 07:56:14;;;;;;;7.30;6.60;;;;;;;;;;5018638;28;20035;-93
2023/08/30 07:58:42;;;;;;;8.98;6.32;;;;;;;;;;5018645;28;20041;-91
2023/08/30 08:01:10;;;;;;;8.90;7.47;;;;;;;;;;5033361;28;20061;-92
2023/08/30 08:03:37;;;;;;;8.52;7.72;;;;;;;;;;5025881;28;20037;-93
2023/08/30 08:06:05;;;;;;;7.57;6.57;;;;;;;;;;5018493;28;20034;-92
2023/08/30 08:08:32;;;;;;;8.63;7.93;;;;;;;;;;5018536;28;20030;-92
2023/08/30 08:11:00;;;;;;;10.30;9.38;;;;;;;;;;5026183;28;20044;-92
2023/08/30 08:13:31;;;;;;;8.20;7.53;;;;;;;;;;5026120;28;20027;-94
2023/08/30 08:15:58;;;;;;;9.13;8.23;;;;;;;;;;5026124;28;20021;-93
2023/08/30 08:18:26;;;;;;;9.20;8.18;;;;;;;;;;5018260;28;20026;-92
2023/08/30 08:20:54;;;;;;;8.75;7.15;;;;;;;;;;5018110;28;20031;-91
2023/08/30 08:23:21;;;;;;;9.10;8.10;;;;;;;;;;5026325;28;20080;-92
2023/08/30 08:25:49;;;;;;;9.18;8.38;;;;;;;;;;5018211;28;20046;-92
2023/08/30 08:28:17;;;;;;;8.20;7.45;;;;;;;;;;5018212;28;20030;-91
2023/08/30 08:30:47;;;;;;;8.75;8.00;;;;;;;;;;5017882;28;20034;-92
2023/08/30 08:33:15;;;;;;;7.60;6.90;;;;;;;;;;5017967;28;20044;-92
2023/08/30 08:35:42;;;;;;;7.38;6.78;;;;;;;;;;5018051;28;20039;-93
2023/08/30 08:38:12;;;;;;;9.25;7.05;;;;;;;;;;5018310;28;20027;-93
2023/08/30 08:40:39;;;;;;;7.25;6.65;;;;;;;;;;5024261;28;20041;-92
2023/08/30 08:43:07;;;;;;;8.82;8.02;;;;;;;;;;5000998;28;20044;-91
2023/08/30 08:45:35;;;;;;;7.05;6.15;;;;;;;;;;5017722;28;20032;-92
2023/08/30 08:48:05;;;;;;;8.05;6.53;;;;;;;;;;5017963;28;20065;-92
2023/08/30 08:50:35;;;;;;;7.80;6.80;;;;;;;;;;5022041;28;20027;-92
2023/08/30 08:53:04;;;;;;;6.90;5.57;;;;;;;;;;4997479;28;20042;-93
2023/08/30 08:55:35;;;;;;;5.47;4.95;;;;;;;;;;5009342;28;20026;-93
2023/08/30 08:58:03;;;;;;;6.22;5.63;;;;;;;;;;5017640;28;20048;-93
2023/08/30 09:00:31;;;;;;;5.55;4.88;;;;;;;;;;5009406;28;20093;-92
2023/08/30 09:03:00;;;;;;;5.50;5.00;;;;;;;;;;5017761;28;20040;-92
2023/08/30 09:05:29;;;;;;;5.60;4.97;;;;;;;;;;5016640;28;20082;-92
2023/08/30 09:07:59;;;;;;;4.78;4.30;;;;;;;;;;5025536;28;20041;-92
2023/08/30 09:10:29;;;;;;;5.45;4.28;;;;;;;;;;5017046;28;20028;-93
2023/08/30 09:12:57;;;;;;;4.85;4.45;;;;;;;;;;5033153;28;20034;-93
2023/08/30 09:15:31;;;;;;;3.80;3.50;;;;;;;;;;5017276;28;20058;-92
2023/08/30 09:17:59;;;;;;;6.03;3.88;;;;;;;;;;5017563;28;20037;-91
2023/08/30 09:20:27;;;;;;;6.50;4.75;;;;;;;;;;5016780;28;20044;-91
2023/08/30 09:22:56;;;;;;;5.10;3.97;;;;;;;;;;5017245;28;20037;-92
2023/08/30 09:25:25;;;;;;;5.97;3.38;;;;;;;;;;5016997;28;20070;-92
2023/08/30 09:27:58;;;;;;;3.90;3.58;;;;;;;;;;5017317;28;20034;-93
2023/08/30 09:30:27;;;;;;;3.92;3.50;;;;;;;;;;5016889;28;20953;-92
2023/08/30 09:32:55;;;;;;;5.03;4.00;;;;;;;;;;5017248;28;20040;-92
2023/08/30 09:35:22;;;;;;;4.35;3.40;;;;;;;;;;5017037;28;20033;-92
2023/08/30 09:37:50;;;;;;;4.38;3.25;;;;;;;;;;5017001;28;20034;-93
2023/08/30 09:40:23;;;;;;;4.05;3.65;;;;;;;;;;5016624;28;20057;-92
2023/08/30 09:42:54;;;;;;;4.28;3.30;;;;;;;;;;5032991;28;20039;-94
2023/08/30 09:45:24;;;;;;;4.38;3.78;;;;;;;;;;5016894;28;20119;-92
2023/08/30 09:47:51;;;;;;;4.22;3.40;;;;;;;;;;5016457;28;20042;-92
2023/08/30 09:50:21;;;;;;;3.47;3.00;;;;;;;;;;5016682;28;20022;-91
2023/08/30 09:52:52;;;;;;;3.35;3.05;;;;;;;;;;5017188;28;20045;-92
2023/08/30 09:55:22;;;;;;;10.23;3.67;;;;;;;;;;5000043;28;20030;-92
2023/08/30 09:57:52;;;;;;;3.15;2.88;;;;;;;;;;5016968;28;20035;-93
2023/08/30 10:00:20;;;;;;;3.50;3.20;;;;;;;;;;5016693;28;20040;-92
2023/08/30 10:02:48;;;;;;;4.35;2.80;;;;;;;;;;5017011;28;20044;-92
2023/08/30 10:05:20;;;;;;;3.67;3.03;;;;;;;;;;5016772;28;20057;-91
2023/08/30 10:07:48;;;;;;;3.72;3.00;;;;;;;;;;5016920;28;20038;-92
2023/08/30 10:10:18;;;;;;;3.05;2.72;;;;;;;;;;5000024;28;20045;-92
2023/08/30 10:12:48;;;;;;;3.28;2.97;;;;;;;;;;5016930;28;20035;-92
2023/08/30 10:15:17;;;;;;;6.13;3.57;;;;;;;;;;5016660;28;20040;-93
2023/08/30 10:17:46;;;;;;;3.13;2.83;;;;;;;;;;5019207;28;20034;-92
2023/08/30 10:20:13;;;;;;;3.58;2.67;;;;;;;;;;5036001;28;20074;-92
2023/08/30 10:22:42;;;;;;;3.33;3.03;;;;;;;;;;5020651;28;20027;-91
2023/08/30 10:25:12;;;;;;;3.05;2.78;;;;;;;;;;5020533;28;20027;-92
2023/08/30 10:27:42;;;;;;;4.10;3.40;;;;;;;;;;5012582;28;20030;-93
2023/08/30 10:30:16;;;;;;;2.60;2.35;;;;;;;;;;5020125;28;20038;-92
2023/08/30 10:32:45;;;;;;;5.65;3.10;;;;;;;;;;5013412;28;20040;-93
2023/08/30 10:35:19;;;;;;;2.92;2.38;;;;;;;;;;5020556;28;20027;-92
2023/08/30 10:37:55;;;;;;;9.38;3.00;;;;;;;;;;5028269;28;20087;-94
2023/08/30 10:40:23;;;;;;;3.00;2.80;;;;;;;;;;5019908;28;20266;-92
2023/08/30 10:43:03;;;;;;;2.83;2.63;;;;;;;;;;5019823;28;20057;-93
2023/08/30 10:45:34;;;;;;;3.42;2.45;;;;;;;;;;5020308;28;20061;-92
2023/08/30 10:48:03;;;;;;;2.80;2.53;;;;;;;;;;5019949;28;20048;-94
2023/08/30 10:50:32;;;;;;;3.10;2.80;;;;;;;;;;5035364;28;20034;-92
2023/08/30 10:53:00;;;;;;;2.22;2.03;;;;;;;;;;5019402;28;20064;-92
2023/08/30 10:55:29;;;;;;;3.03;2.53;;;;;;;;;;5025608;28;20030;-91
2023/08/30 10:58:01;;;;;;;3.45;2.67;;;;;;;;;;5019837;28;20045;-92
2023/08/30 11:00:30;;;;;;;2.95;2.30;;;;;;;;;;5029179;28;20056;-92
2023/08/30 11:02:58;;;;;;;2.20;2.00;;;;;;;;;;5024781;28;20054;-92
2023/08/30 11:05:27;;;;;;;2.38;2.05;;;;;;;;;;5019846;28;20050;-93
2023/08/30 11:08:00;;;;;;;2.33;2.08;;;;;;;;;;5018968;28;20048;-93
2023/08/30 11:10:27;;;;;;;2.30;2.00;;;;;;;;;;5018796;28;20045;-92
2023/08/30 11:12:57;;;;;;;2.33;2.13;;;;;;;;;;5019522;28;20036;-92
2023/08/30 11:15:27;;;;;;;4.47;2.38;;;;;;;;;;5019642;28;20034;-91
2023/08/30 11:18:05;;;;;;;3.35;2.15;;;;;;;;;;5035024;28;20046;-93
2023/08/30 11:20:32;;;;;;;3.67;2.13;;;;;;;;;;5026826;28;20037;-94
2023/08/30 11:23:00;;;;;;;1.85;1.65;;;;;;;;;;5034576;28;20112;-92
2023/08/30 11:25:27;;;;;;;2.53;2.05;;;;;;;;;;5019417;28;20034;-93
2023/08/30 11:28:05;;;;;;;2.50;2.03;;;;;;;;;;5027305;28;20034;-94
2023/08/30 11:30:41;;;;;;;2.85;2.42;;;;;;;;;;5026550;28;20026;-95
2023/08/30 11:33:10;;;;;;;2.08;1.83;;;;;;;;;;5019099;28;20026;-93
2023/08/30 11:35:40;;;;;;;2.22;2.03;;;;;;;;;;5019377;28;20038;-93
2023/08/30 11:38:08;;;;;;;2.63;2.38;;;;;;;;;;5019153;28;20032;-93
2023/08/30 11:40:35;;;;;;;1.90;1.70;;;;;;;;;;5018829;28;20276;-93
2023/08/30 11:43:03;;;;;;;2.88;2.58;;;;;;;;;;5018121;28;20052;-94
2023/08/30 11:45:32;;;;;;;1.88;1.70;;;;;;;;;;5018504;28;20030;-93
2023/08/30 11:48:00;;;;;;;1.90;1.80;;;;;;;;;;5018987;28;20054;-94
2023/08/30 11:50:29;;;;;;;2.97;2.42;;;;;;;;;;5026875;28;20035;-93
2023/08/30 11:52:59;;;;;;;5.97;2.10;;;;;;;;;;5024135;28;20038;-93
2023/08/30 11:55:27;;;;;;;2.03;1.83;;;;;;;;;;5026222;28;20034;-93
2023/08/30 11:57:55;;;;;;;2.58;2.28;;;;;;;;;;5018722;28;20046;-92
2023/08/30 12:00:23;;;;;;;4.47;2.47;;;;;;;;;;5018588;28;20047;-93
2023/08/30 12:02:50;;;;;;;2.35;2.10;;;;;;;;;;5018886;28;20249;-93
2023/08/30 12:05:18;;;;;;;4.20;2.08;;;;;;;;;;5019030;28;20036;-93
2023/08/30 12:07:47;;;;;;;3.90;1.90;;;;;;;;;;5018429;28;20034;-93
2023/08/30 12:10:19;;;;;;;2.03;1.73;;;;;;;;;;5018398;28;20045;-93
2023/08/30 12:12:47;;;;;;;7.35;2.30;;;;;;;;;;5018540;28;20022;-92
2023/08/30 12:15:16;;;;;;;2.40;1.55;;;;;;;;;;5018610;28;20022;-94
2023/08/30 12:17:44;;;;;;;2.72;2.30;;;;;;;;;;5033841;28;20058;-93
2023/08/30 12:20:20;;;;;;;3.67;1.88;;;;;;;;;;5017593;28;20030;-93
2023/08/30 12:22:50;;;;;;;2.60;2.13;;;;;;;;;;5026652;28;20038;-92
2023/08/30 12:25:19;;;;;;;2.17;1.88;;;;;;;;;;5025896;28;20046;-94
2023/08/30 12:27:48;;;;;;;3.00;2.13;;;;;;;;;;5033974;28;20033;-92
2023/08/30 12:30:18;;;;;;;2.30;1.90;;;;;;;;;;5017889;28;20048;-94
2023/08/30 12:32:47;;;;;;;2.92;2.30;;;;;;;;;;5025683;28;20041;-93
2023/08/30 12:35:14;;;;;;;2.10;1.80;;;;;;;;;;5034017;28;20019;-93
2023/08/30 12:37:44;;;;;;;3.35;2.20;;;;;;;;;;5020466;28;20034;-94
2023/08/30 12:40:15;;;;;;;;;;;;;;;;;;5028414;28;20036;-94
2023/08/30 12:42:43;;;;;;;2.55;1.77;;;;;;;;;;5018496;28;20136;-92
2023/08/30 12:45:10;;;;;;;2.25;2.05;;;;;;;;;;5018094;28;20025;-93
2023/08/30 12:47:40;;;;;;;2.13;1.92;;;;;;;;;;5033593;28;20056;-94
2023/08/30 12:50:10;;;;;;;2.00;1.80;;;;;;;;;;5031957;28;20038;-93
2023/08/30 12:52:38;;;;;;;2.33;2.13;;;;;;;;;;5021192;28;20030;-93
2023/08/30 12:55:06;;;;;;;2.75;2.20;;;;;;;;;;5023278;28;20040;-93
2023/08/30 12:57:40;;;;;;;2.60;1.80;;;;;;;;;;5017647;28;20034;-93
2023/08/30 13:00:08;;;;;;;2.20;1.90;;;;;;;;;;5022805;28;20037;-93
2023/08/30 13:02:35;;;;;;;3.45;2.40;;;;;;;;;;5028404;28;20044;-92
2023/08/30 13:05:03;;;;;;;2.40;2.08;;;;;;;;;;5018374;28;20041;-93
2023/08/30 13:07:33;;;;;;;2.30;2.05;;;;;;;;;;5033068;28;20025;-92
2023/08/30 13:10:01;;;;;;;2.47;1.70;;;;;;;;;;5017485;28;20031;-92
2023/08/30 13:12:31;;;;;;;2.00;1.67;;;;;;;;;;5033324;28;20026;-93
2023/08/30 13:15:02;;;;;;;2.30;2.10;;;;;;;;;;5017689;28;20031;-92
2023/08/30 13:17:32;;;;;;;2.88;1.75;;;;;;;;;;5016952;28;20044;-94
2023/08/30 13:20:03;;;;;;;3.47;1.88;;;;;;;;;;5017107;28;20030;-93
2023/08/30 13:22:32;;;;;;;3.47;2.35;;;;;;;;;;5017164;28;20056;-93
2023/08/30 13:25:03;;;;;;;3.25;2.25;;;;;;;;;;5041012;28;20056;-93
2023/08/30 13:27:31;;;;;;;2.00;1.75;;;;;;;;;;5016664;28;20041;-92
2023/08/30 13:29:58;;;;;;;2.03;1.80;;;;;;;;;;5016056;28;20038;-92
2023/08/30 13:32:30;;;;;;;2.03;1.83;;;;;;;;;;5017068;28;20026;-93
2023/08/30 13:35:02;;;;;;;3.05;2.20;;;;;;;;;;5017268;28;20038;-93
2023/08/30 13:37:30;;;;;;;2.15;1.80;;;;;;;;;;5017248;28;20034;-92
2023/08/30 13:39:57;;;;;;;2.00;1.80;;;;;;;;;;5009017;28;20026;-93
2023/08/30 13:42:27;;;;;;;2.45;1.90;;;;;;;;;;5016975;28;20042;-93
2023/08/30 13:44:54;;;;;;;2.35;2.15;;;;;;;;;;5016985;28;20050;-93
2023/08/30 13:47:21;;;;;;;4.95;2.00;;;;;;;;;;5016980;28;20030;-92
2023/08/30 13:49:50;;;;;;;2.65;1.88;;;;;;;;;;5024723;28;20038;-92
2023/08/30 13:52:18;;;;;;;2.65;2.00;;;;;;;;;;5018146;28;20032;-92
2023/08/30 13:54:49;;;;;;;1.73;1.63;;;;;;;;;;5020957;28;20043;-92
2023/08/30 13:57:17;;;;;;;2.55;2.20;;;;;;;;;;5020217;28;20030;-92
2023/08/30 13:59:47;;;;;;;2.53;1.95;;;;;;;;;;5020573;28;20041;-92
2023/08/30 14:02:14;;;;;;;3.08;2.35;;;;;;;;;;5020909;28;20034;-93
2023/08/30 14:04:42;;;;;;;2.15;1.92;;;;;;;;;;5020639;28;20045;-92
2023/08/30 14:07:11;;;;;;;2.55;1.73;;;;;;;;;;5020402;28;20041;-94
2023/08/30 14:09:41;;;;;;;2.72;2.53;;;;;;;;;;5026457;28;20026;-92
2023/08/30 14:12:11;;;;;;;3.28;1.73;;;;;;;;;;5018803;28;20049;-94
2023/08/30 14:14:38;;;;;;;2.70;2.45;;;;;;;;;;5019016;28;20034;-92
2023/08/30 14:17:05;;;;;;;2.53;1.85;;;;;;;;;;5019463;28;20040;-93
2023/08/30 14:19:34;;;;;;;3.05;2.00;;;;;;;;;;5018740;28;20034;-94
2023/08/30 14:22:03;;;;;;;2.45;1.88;;;;;;;;;;5019129;28;20032;-93
2023/08/30 14:24:35;;;;;;;1.90;1.60;;;;;;;;;;5020622;28;20034;-92
2023/08/30 14:27:02;;;;;;;2.40;1.77;;;;;;;;;;5012169;28;20033;-92
2023/08/30 14:29:31;;;;;;;2.50;1.42;;;;;;;;;;5017643;28;20050;-93
2023/08/30 14:31:59;;;;;;;3.88;1.42;;;;;;;;;;5017769;28;20030;-93
2023/08/30 14:34:26;;;;;;;6.70;2.33;;;;;;;;;;5034685;28;20030;-93
2023/08/30 14:36:53;;;;;;;1.98;1.60;;;;;;;;;;5019014;28;20041;-93
2023/08/30 14:39:21;;;;;;;3.03;1.42;;;;;;;;;;5018407;28;20047;-93
2023/08/30 14:41:50;;;;;;;3.10;1.77;;;;;;;;;;5018497;28;20037;-93
2023/08/30 14:44:20;;;;;;;1.92;1.50;;;;;;;;;;5017855;28;20039;-94
2023/08/30 14:46:50;;;;;;;1.75;1.58;;;;;;;;;;5018988;28;20034;-92
2023/08/30 14:49:17;;;;;;;2.97;2.30;;;;;;;;;;5018299;28;20034;-93
2023/08/30 14:51:44;;;;;;;2.05;1.80;;;;;;;;;;5025740;28;20040;-92
2023/08/30 14:54:12;;;;;;;2.55;1.58;;;;;;;;;;5018985;28;20027;-94